FLI250 BIRK-EKVG
Flight info
| Callsign | FLI250 |
|---|---|
| Flight time | 1h 40m |
| Altitude | 31000 |
| Route | LUTER DCT MOXAL DCT MAGNI |
| Aircraft | RJ1H/M-SDFGIRWY/LB1 |
Departure
| Time | 2026-04-28 11:53 |
|---|---|
| Airport | Reykjavík Domestic Airport (BIRK) |
Arrival
| Time | 2026-04-28 13:33 |
|---|---|
| Airport | Vágar Airport (EKVG) |
| Time | Latitude | Longitude | Altitude | Speed | Heading |
|---|---|---|---|---|---|
| 2026-04-28 11:38 | 64.13167 | -21.94495 | 47 ft | 0 kts | 310° |
| 2026-04-28 11:47 | 64.13170 | -21.94502 | 47 ft | 1 kts | 320° |
| 2026-04-28 11:47 | 64.13176 | -21.94493 | 45 ft | 1 kts | 77° |
| 2026-04-28 11:47 | 64.13162 | -21.94467 | 45 ft | 5 kts | 145° |
| 2026-04-28 11:47 | 64.13136 | -21.94423 | 47 ft | 4 kts | 140° |
| 2026-04-28 11:48 | 64.13130 | -21.94345 | 47 ft | 7 kts | 81° |
| 2026-04-28 11:48 | 64.13137 | -21.94210 | 46 ft | 9 kts | 83° |
| 2026-04-28 11:48 | 64.13144 | -21.94052 | 47 ft | 12 kts | 84° |
| 2026-04-28 11:48 | 64.13152 | -21.93876 | 47 ft | 13 kts | 88° |
| 2026-04-28 11:49 | 64.13113 | -21.93685 | 46 ft | 14 kts | 125° |
| 2026-04-28 11:49 | 64.13046 | -21.93564 | 47 ft | 11 kts | 175° |
| 2026-04-28 11:49 | 64.12974 | -21.93566 | 49 ft | 10 kts | 181° |
| 2026-04-28 11:49 | 64.12911 | -21.93518 | 49 ft | 11 kts | 147° |
| 2026-04-28 11:50 | 64.12822 | -21.93492 | 52 ft | 15 kts | 175° |
| 2026-04-28 11:50 | 64.12820 | -21.93547 | 52 ft | 9 kts | 297° |
| 2026-04-28 11:50 | 64.12879 | -21.93744 | 52 ft | 20 kts | 336° |
| 2026-04-28 11:50 | 64.13055 | -21.93791 | 48 ft | 27 kts | 1° |
| 2026-04-28 11:51 | 64.13166 | -21.93612 | 45 ft | 21 kts | 44° |
| 2026-04-28 11:51 | 64.13276 | -21.93579 | 43 ft | 18 kts | 352° |
| 2026-04-28 11:51 | 64.13399 | -21.93607 | 43 ft | 18 kts | 354° |
| 2026-04-28 11:51 | 64.13518 | -21.93633 | 41 ft | 17 kts | 355° |
| 2026-04-28 11:52 | 64.13614 | -21.93769 | 40 ft | 17 kts | 309° |
| 2026-04-28 11:52 | 64.13606 | -21.93887 | 40 ft | 8 kts | 184° |
| 2026-04-28 11:52 | 64.13594 | -21.93885 | 40 ft | 0 kts | 174° |
| 2026-04-28 11:52 | 64.13488 | -21.93866 | 41 ft | 45 kts | 176° |
| 2026-04-28 11:53 | 64.12955 | -21.93767 | 44 ft | 106 kts | 175° |
| 2026-04-28 11:53 | 64.12161 | -21.93623 | 316 ft | 117 kts | 176° |
| 2026-04-28 11:53 | 64.11342 | -21.93488 | 715 ft | 117 kts | 177° |
| 2026-04-28 11:53 | 64.10477 | -21.93370 | 1100 ft | 122 kts | 180° |
| 2026-04-28 11:54 | 64.09620 | -21.93293 | 1505 ft | 128 kts | 179° |
| 2026-04-28 11:54 | 64.08868 | -21.92085 | 1812 ft | 159 kts | 124° |
| 2026-04-28 11:54 | 64.08891 | -21.89334 | 2108 ft | 185 kts | 86° |
| 2026-04-28 11:54 | 64.09186 | -21.86439 | 2401 ft | 187 kts | 85° |
| 2026-04-28 11:55 | 64.09484 | -21.83567 | 2589 ft | 193 kts | 85° |
| 2026-04-28 11:55 | 64.09781 | -21.80465 | 2776 ft | 207 kts | 86° |
| 2026-04-28 11:55 | 64.10038 | -21.77043 | 2880 ft | 233 kts | 89° |
| 2026-04-28 11:55 | 64.10263 | -21.73221 | 3128 ft | 251 kts | 91° |
| 2026-04-28 11:56 | 64.10366 | -21.69148 | 3467 ft | 262 kts | 96° |
| 2026-04-28 11:56 | 64.10372 | -21.64895 | 3959 ft | 269 kts | 98° |
| 2026-04-28 11:56 | 64.10337 | -21.60596 | 4433 ft | 274 kts | 99° |
| 2026-04-28 11:56 | 64.10322 | -21.56189 | 4890 ft | 279 kts | 98° |
| 2026-04-28 11:57 | 64.10343 | -21.51730 | 5326 ft | 282 kts | 97° |
| 2026-04-28 11:57 | 64.10397 | -21.47231 | 5760 ft | 284 kts | 96° |
| 2026-04-28 11:57 | 64.10465 | -21.42758 | 6139 ft | 286 kts | 96° |
| 2026-04-28 11:57 | 64.10536 | -21.38192 | 6499 ft | 288 kts | 96° |
| 2026-04-28 11:58 | 64.10618 | -21.33603 | 6856 ft | 289 kts | 96° |
| 2026-04-28 11:58 | 64.10704 | -21.28991 | 7176 ft | 292 kts | 97° |
| 2026-04-28 11:58 | 64.10789 | -21.24337 | 7504 ft | 294 kts | 97° |
| 2026-04-28 11:58 | 64.10871 | -21.19666 | 7887 ft | 294 kts | 97° |
| 2026-04-28 11:59 | 64.10950 | -21.14977 | 8241 ft | 295 kts | 97° |
| 2026-04-28 11:59 | 64.11014 | -21.10289 | 8550 ft | 296 kts | 98° |
| 2026-04-28 11:59 | 64.11071 | -21.05634 | 8868 ft | 297 kts | 98° |
| 2026-04-28 11:59 | 64.11126 | -21.00906 | 9213 ft | 298 kts | 98° |
| 2026-04-28 12:00 | 64.11188 | -20.96162 | 9528 ft | 299 kts | 98° |
| 2026-04-28 12:00 | 64.11259 | -20.91392 | 9792 ft | 301 kts | 98° |
| 2026-04-28 12:00 | 64.11325 | -20.86533 | 9891 ft | 307 kts | 99° |
| 2026-04-28 12:00 | 64.11394 | -20.81709 | 10313 ft | 305 kts | 99° |
| 2026-04-28 12:01 | 64.11458 | -20.76800 | 10672 ft | 313 kts | 99° |
| 2026-04-28 12:01 | 64.11505 | -20.71740 | 10933 ft | 323 kts | 99° |
| 2026-04-28 12:01 | 64.11556 | -20.66516 | 11198 ft | 333 kts | 98° |
| 2026-04-28 12:01 | 64.11619 | -20.61226 | 11456 ft | 341 kts | 98° |
| 2026-04-28 12:02 | 64.11677 | -20.55755 | 11729 ft | 347 kts | 98° |
| 2026-04-28 12:02 | 64.11737 | -20.50181 | 12006 ft | 353 kts | 98° |
| 2026-04-28 12:02 | 64.11794 | -20.44539 | 12359 ft | 356 kts | 98° |
| 2026-04-28 12:02 | 64.11849 | -20.38868 | 12712 ft | 358 kts | 98° |
| 2026-04-28 12:03 | 64.11891 | -20.33159 | 13055 ft | 359 kts | 99° |
| 2026-04-28 12:03 | 64.11874 | -20.27440 | 13356 ft | 360 kts | 100° |
| 2026-04-28 12:03 | 64.11821 | -20.21697 | 13680 ft | 362 kts | 101° |
| 2026-04-28 12:03 | 64.11761 | -20.15927 | 13983 ft | 363 kts | 101° |
| 2026-04-28 12:04 | 64.11696 | -20.10139 | 14311 ft | 364 kts | 101° |
| 2026-04-28 12:04 | 64.11645 | -20.04407 | 14601 ft | 367 kts | 102° |
| 2026-04-28 12:04 | 64.11608 | -19.98547 | 14910 ft | 369 kts | 102° |
| 2026-04-28 12:04 | 64.11557 | -19.92674 | 15248 ft | 370 kts | 102° |
| 2026-04-28 12:05 | 64.11506 | -19.86787 | 15588 ft | 371 kts | 102° |
| 2026-04-28 12:05 | 64.11459 | -19.80871 | 15941 ft | 372 kts | 103° |
| 2026-04-28 12:05 | 64.11392 | -19.74949 | 16312 ft | 373 kts | 103° |
| 2026-04-28 12:05 | 64.11319 | -19.69005 | 16694 ft | 374 kts | 103° |
| 2026-04-28 12:06 | 64.11253 | -19.63523 | 17059 ft | 375 kts | 103° |
| 2026-04-28 12:06 | 64.11250 | -19.63317 | 17070 ft | 375 kts | 103° |
| 2026-04-28 12:06 | 64.11182 | -19.57420 | 17412 ft | 376 kts | 104° |
| 2026-04-28 12:06 | 64.11118 | -19.51439 | 17753 ft | 376 kts | 104° |
| 2026-04-28 12:07 | 64.11057 | -19.45465 | 18105 ft | 376 kts | 104° |
| 2026-04-28 12:07 | 64.10974 | -19.39493 | 18400 ft | 375 kts | 104° |
| 2026-04-28 12:07 | 64.10896 | -19.33534 | 18690 ft | 375 kts | 105° |
| 2026-04-28 12:07 | 64.10818 | -19.27572 | 18971 ft | 375 kts | 105° |
| 2026-04-28 12:08 | 64.10746 | -19.21615 | 19207 ft | 374 kts | 105° |
| 2026-04-28 12:08 | 64.10653 | -19.15676 | 19506 ft | 374 kts | 105° |
| 2026-04-28 12:08 | 64.10557 | -19.09824 | 19818 ft | 374 kts | 105° |
| 2026-04-28 12:08 | 64.10457 | -19.03866 | 20149 ft | 375 kts | 106° |
| 2026-04-28 12:09 | 64.10361 | -18.97905 | 20446 ft | 376 kts | 106° |
| 2026-04-28 12:09 | 64.10263 | -18.91902 | 20722 ft | 379 kts | 106° |
| 2026-04-28 12:09 | 64.10161 | -18.85842 | 20985 ft | 382 kts | 106° |
| 2026-04-28 12:09 | 64.10057 | -18.79748 | 21261 ft | 385 kts | 106° |
| 2026-04-28 12:10 | 64.09948 | -18.73600 | 21559 ft | 388 kts | 106° |
| 2026-04-28 12:10 | 64.09840 | -18.67402 | 21748 ft | 391 kts | 105° |
| 2026-04-28 12:10 | 64.09724 | -18.61261 | 22012 ft | 393 kts | 106° |
| 2026-04-28 12:10 | 64.09600 | -18.55018 | 22302 ft | 395 kts | 106° |
| 2026-04-28 12:11 | 64.09470 | -18.48725 | 22587 ft | 397 kts | 106° |
| 2026-04-28 12:11 | 64.09337 | -18.42409 | 22874 ft | 399 kts | 106° |
| 2026-04-28 12:11 | 64.09211 | -18.36055 | 23125 ft | 401 kts | 105° |
| 2026-04-28 12:11 | 64.09085 | -18.29689 | 23420 ft | 402 kts | 105° |
| 2026-04-28 12:12 | 64.08962 | -18.23298 | 23713 ft | 403 kts | 105° |
| 2026-04-28 12:12 | 64.08840 | -18.16878 | 23948 ft | 404 kts | 105° |
| 2026-04-28 12:12 | 64.08719 | -18.10533 | 24177 ft | 405 kts | 105° |
| 2026-04-28 12:12 | 64.08541 | -18.04136 | 24409 ft | 400 kts | 110° |
| 2026-04-28 12:13 | 64.08096 | -17.97965 | 24641 ft | 389 kts | 117° |
| 2026-04-28 12:13 | 64.07412 | -17.92053 | 24886 ft | 382 kts | 121° |
| 2026-04-28 12:13 | 64.06610 | -17.86339 | 25128 ft | 374 kts | 123° |
| 2026-04-28 12:13 | 64.05760 | -17.80749 | 25325 ft | 373 kts | 124° |
| 2026-04-28 12:14 | 64.04884 | -17.75150 | 25510 ft | 375 kts | 124° |
| 2026-04-28 12:14 | 64.04001 | -17.69506 | 25553 ft | 379 kts | 124° |
| 2026-04-28 12:14 | 64.03125 | -17.63824 | 25777 ft | 380 kts | 124° |
| 2026-04-28 12:14 | 64.02262 | -17.58107 | 25956 ft | 383 kts | 123° |
| 2026-04-28 12:15 | 64.01424 | -17.52394 | 26132 ft | 386 kts | 123° |
| 2026-04-28 12:15 | 64.00574 | -17.46573 | 26294 ft | 389 kts | 123° |
| 2026-04-28 12:15 | 63.99709 | -17.40717 | 26456 ft | 390 kts | 123° |
| 2026-04-28 12:15 | 63.98825 | -17.34860 | 26626 ft | 392 kts | 123° |
| 2026-04-28 12:16 | 63.97937 | -17.28984 | 26813 ft | 394 kts | 123° |
| 2026-04-28 12:16 | 63.97056 | -17.23048 | 26977 ft | 397 kts | 123° |
| 2026-04-28 12:16 | 63.96151 | -17.17077 | 27003 ft | 402 kts | 123° |
| 2026-04-28 12:16 | 63.95216 | -17.11058 | 27040 ft | 407 kts | 122° |
| 2026-04-28 12:17 | 63.94279 | -17.05022 | 27058 ft | 414 kts | 122° |
| 2026-04-28 12:17 | 63.93334 | -16.98789 | 27050 ft | 420 kts | 121° |
| 2026-04-28 12:17 | 63.92379 | -16.92478 | 27047 ft | 425 kts | 121° |
| 2026-04-28 12:17 | 63.91408 | -16.86084 | 27040 ft | 429 kts | 121° |
| 2026-04-28 12:18 | 63.90428 | -16.79653 | 27035 ft | 432 kts | 121° |
| 2026-04-28 12:18 | 63.89438 | -16.73203 | 27038 ft | 433 kts | 121° |
| 2026-04-28 12:18 | 63.88429 | -16.66769 | 27039 ft | 432 kts | 122° |
| 2026-04-28 12:18 | 63.87407 | -16.60354 | 27039 ft | 433 kts | 121° |
| 2026-04-28 12:19 | 63.86416 | -16.53997 | 27031 ft | 433 kts | 121° |
| 2026-04-28 12:19 | 63.85415 | -16.47562 | 27027 ft | 433 kts | 121° |
| 2026-04-28 12:19 | 63.84403 | -16.41128 | 27028 ft | 433 kts | 122° |
| 2026-04-28 12:19 | 63.83368 | -16.34731 | 27034 ft | 433 kts | 122° |
| 2026-04-28 12:20 | 63.82338 | -16.28305 | 27041 ft | 434 kts | 122° |
| 2026-04-28 12:20 | 63.81322 | -16.21871 | 27036 ft | 434 kts | 121° |
| 2026-04-28 12:20 | 63.80307 | -16.15427 | 27032 ft | 434 kts | 122° |
| 2026-04-28 12:20 | 63.79287 | -16.09101 | 27038 ft | 433 kts | 122° |
| 2026-04-28 12:21 | 63.78238 | -16.02709 | 27043 ft | 433 kts | 122° |
| 2026-04-28 12:21 | 63.77197 | -15.96314 | 27037 ft | 434 kts | 122° |
| 2026-04-28 12:21 | 63.76170 | -15.89892 | 27034 ft | 434 kts | 122° |
| 2026-04-28 12:21 | 63.75131 | -15.83503 | 27034 ft | 433 kts | 122° |
| 2026-04-28 12:22 | 63.74075 | -15.77123 | 27035 ft | 433 kts | 122° |
| 2026-04-28 12:22 | 63.73014 | -15.70757 | 27033 ft | 433 kts | 122° |
| 2026-04-28 12:22 | 63.71965 | -15.64375 | 27016 ft | 434 kts | 122° |
| 2026-04-28 12:22 | 63.70915 | -15.57995 | 27029 ft | 434 kts | 122° |
| 2026-04-28 12:23 | 63.69863 | -15.51610 | 27037 ft | 435 kts | 122° |
| 2026-04-28 12:23 | 63.68821 | -15.45322 | 27046 ft | 435 kts | 122° |
| 2026-04-28 12:23 | 63.67761 | -15.38929 | 27050 ft | 436 kts | 122° |
| 2026-04-28 12:23 | 63.66697 | -15.32536 | 27052 ft | 435 kts | 122° |
| 2026-04-28 12:24 | 63.65635 | -15.26156 | 27058 ft | 435 kts | 122° |
| 2026-04-28 12:24 | 63.64570 | -15.19786 | 27057 ft | 434 kts | 122° |
| 2026-04-28 12:24 | 63.63483 | -15.13451 | 27056 ft | 434 kts | 123° |
| 2026-04-28 12:24 | 63.62396 | -15.07118 | 27059 ft | 435 kts | 122° |
| 2026-04-28 12:25 | 63.61324 | -15.00778 | 27056 ft | 435 kts | 122° |
| 2026-04-28 12:25 | 63.60250 | -14.94425 | 27065 ft | 435 kts | 122° |
| 2026-04-28 12:25 | 63.59173 | -14.88180 | 27068 ft | 434 kts | 123° |
| 2026-04-28 12:25 | 63.58064 | -14.81881 | 27041 ft | 434 kts | 122° |
| 2026-04-28 12:26 | 63.56960 | -14.75566 | 27017 ft | 436 kts | 121° |
| 2026-04-28 12:26 | 63.55860 | -14.69232 | 27051 ft | 436 kts | 121° |
| 2026-04-28 12:26 | 63.54762 | -14.62879 | 27066 ft | 438 kts | 121° |
| 2026-04-28 12:26 | 63.53669 | -14.56502 | 27081 ft | 438 kts | 121° |
| 2026-04-28 12:27 | 63.52555 | -14.50152 | 27079 ft | 438 kts | 121° |
| 2026-04-28 12:27 | 63.51433 | -14.43806 | 27081 ft | 438 kts | 121° |
| 2026-04-28 12:27 | 63.50323 | -14.37569 | 27095 ft | 437 kts | 121° |
| 2026-04-28 12:27 | 63.49197 | -14.31246 | 27095 ft | 437 kts | 121° |
| 2026-04-28 12:28 | 63.48095 | -14.24904 | 27097 ft | 438 kts | 121° |
| 2026-04-28 12:28 | 63.46976 | -14.18562 | 27102 ft | 437 kts | 121° |
| 2026-04-28 12:28 | 63.45849 | -14.12250 | 27102 ft | 437 kts | 121° |
| 2026-04-28 12:28 | 63.44718 | -14.05956 | 27101 ft | 437 kts | 122° |
| 2026-04-28 12:29 | 63.42449 | -13.93379 | 27113 ft | 437 kts | 122° |
| 2026-04-28 12:29 | 63.41325 | -13.87171 | 27073 ft | 437 kts | 122° |
| 2026-04-28 12:29 | 63.40183 | -13.80899 | 27106 ft | 436 kts | 121° |
| 2026-04-28 12:30 | 63.39036 | -13.74624 | 27114 ft | 437 kts | 121° |
| 2026-04-28 12:30 | 63.37886 | -13.68347 | 27094 ft | 437 kts | 120° |
| 2026-04-28 12:30 | 63.36742 | -13.62076 | 27110 ft | 438 kts | 120° |
| 2026-04-28 12:30 | 63.35596 | -13.55789 | 27116 ft | 438 kts | 120° |
| 2026-04-28 12:31 | 63.34451 | -13.49501 | 27135 ft | 438 kts | 120° |
| 2026-04-28 12:31 | 63.33303 | -13.43221 | 27138 ft | 438 kts | 120° |
| 2026-04-28 12:31 | 63.32153 | -13.36933 | 27138 ft | 438 kts | 120° |
| 2026-04-28 12:31 | 63.30986 | -13.30679 | 27139 ft | 437 kts | 121° |
| 2026-04-28 12:32 | 63.29804 | -13.24456 | 27140 ft | 437 kts | 121° |
| 2026-04-28 12:32 | 63.28655 | -13.18292 | 27139 ft | 438 kts | 120° |
| 2026-04-28 12:32 | 63.27496 | -13.12048 | 27146 ft | 437 kts | 120° |
| 2026-04-28 12:32 | 63.26316 | -13.05821 | 27157 ft | 437 kts | 121° |
| 2026-04-28 12:33 | 63.25129 | -12.99618 | 27155 ft | 437 kts | 121° |
| 2026-04-28 12:33 | 63.23953 | -12.93396 | 27139 ft | 437 kts | 120° |
| 2026-04-28 12:33 | 63.22762 | -12.87178 | 27152 ft | 438 kts | 120° |
| 2026-04-28 12:33 | 63.21567 | -12.80965 | 27163 ft | 439 kts | 120° |
| 2026-04-28 12:34 | 63.20368 | -12.74748 | 27168 ft | 439 kts | 120° |
| 2026-04-28 12:34 | 63.19195 | -12.68599 | 27162 ft | 439 kts | 120° |
| 2026-04-28 12:34 | 63.18007 | -12.62374 | 27131 ft | 439 kts | 120° |
| 2026-04-28 12:34 | 63.16810 | -12.56177 | 27154 ft | 438 kts | 120° |
| 2026-04-28 12:35 | 63.15624 | -12.49969 | 27160 ft | 438 kts | 120° |
| 2026-04-28 12:35 | 63.14431 | -12.43767 | 27176 ft | 438 kts | 120° |
| 2026-04-28 12:35 | 63.13216 | -12.37595 | 27179 ft | 438 kts | 120° |
| 2026-04-28 12:35 | 63.11996 | -12.31425 | 27180 ft | 438 kts | 120° |
| 2026-04-28 12:36 | 63.10795 | -12.25233 | 27182 ft | 439 kts | 120° |
| 2026-04-28 12:36 | 63.09587 | -12.19051 | 27180 ft | 438 kts | 120° |
| 2026-04-28 12:36 | 63.08377 | -12.12976 | 27189 ft | 438 kts | 121° |
| 2026-04-28 12:36 | 63.07149 | -12.06831 | 27182 ft | 438 kts | 120° |
| 2026-04-28 12:37 | 63.05924 | -12.00668 | 27192 ft | 439 kts | 120° |
| 2026-04-28 12:37 | 63.04697 | -11.94499 | 27195 ft | 440 kts | 120° |
| 2026-04-28 12:37 | 63.03469 | -11.88315 | 27197 ft | 440 kts | 120° |
| 2026-04-28 12:37 | 63.02239 | -11.82143 | 27197 ft | 440 kts | 120° |
| 2026-04-28 12:38 | 63.01012 | -11.75982 | 27202 ft | 440 kts | 120° |
| 2026-04-28 12:38 | 62.99780 | -11.69823 | 27210 ft | 440 kts | 120° |
| 2026-04-28 12:38 | 62.98550 | -11.63665 | 27210 ft | 440 kts | 120° |
| 2026-04-28 12:38 | 62.97310 | -11.57529 | 27211 ft | 439 kts | 121° |
| 2026-04-28 12:39 | 62.96064 | -11.51497 | 27189 ft | 439 kts | 120° |
| 2026-04-28 12:39 | 62.94809 | -11.45371 | 27202 ft | 439 kts | 120° |
| 2026-04-28 12:39 | 62.93560 | -11.39261 | 27216 ft | 439 kts | 120° |
| 2026-04-28 12:39 | 62.92307 | -11.33139 | 27218 ft | 439 kts | 120° |
| 2026-04-28 12:40 | 62.91056 | -11.27036 | 27195 ft | 439 kts | 120° |
| 2026-04-28 12:40 | 62.89792 | -11.20945 | 27211 ft | 439 kts | 120° |
| 2026-04-28 12:40 | 62.88517 | -11.14839 | 27218 ft | 441 kts | 120° |
| 2026-04-28 12:40 | 62.87256 | -11.08708 | 27235 ft | 441 kts | 120° |
| 2026-04-28 12:41 | 62.86013 | -11.02656 | 27237 ft | 442 kts | 120° |
| 2026-04-28 12:41 | 62.84732 | -10.96549 | 27236 ft | 441 kts | 120° |
| 2026-04-28 12:41 | 62.83441 | -10.90467 | 27238 ft | 441 kts | 120° |
| 2026-04-28 12:41 | 62.82166 | -10.84363 | 27241 ft | 441 kts | 120° |
| 2026-04-28 12:42 | 62.80893 | -10.78268 | 27242 ft | 441 kts | 120° |
| 2026-04-28 12:42 | 62.79598 | -10.72199 | 27251 ft | 440 kts | 120° |
| 2026-04-28 12:42 | 62.78305 | -10.66125 | 27250 ft | 441 kts | 120° |
| 2026-04-28 12:42 | 62.77027 | -10.60041 | 27249 ft | 441 kts | 120° |
| 2026-04-28 12:43 | 62.75728 | -10.53985 | 27247 ft | 440 kts | 120° |
| 2026-04-28 12:43 | 62.74440 | -10.48021 | 27248 ft | 440 kts | 121° |
| 2026-04-28 12:43 | 62.73141 | -10.41981 | 27231 ft | 440 kts | 120° |
| 2026-04-28 12:43 | 62.71841 | -10.35943 | 27240 ft | 440 kts | 120° |
| 2026-04-28 12:44 | 62.70534 | -10.29911 | 27260 ft | 441 kts | 120° |
| 2026-04-28 12:44 | 62.69221 | -10.23874 | 27262 ft | 441 kts | 120° |
| 2026-04-28 12:44 | 62.67921 | -10.17824 | 27263 ft | 442 kts | 119° |
| 2026-04-28 12:44 | 62.66624 | -10.11765 | 27263 ft | 441 kts | 120° |
| 2026-04-28 12:45 | 62.65310 | -10.05728 | 27266 ft | 441 kts | 120° |
| 2026-04-28 12:45 | 62.63993 | -9.99705 | 27274 ft | 441 kts | 120° |
| 2026-04-28 12:45 | 62.62674 | -9.93697 | 27274 ft | 441 kts | 120° |
| 2026-04-28 12:45 | 62.61372 | -9.87767 | 27275 ft | 441 kts | 120° |
| 2026-04-28 12:46 | 62.60050 | -9.81770 | 27278 ft | 441 kts | 120° |
| 2026-04-28 12:46 | 62.58724 | -9.75765 | 27282 ft | 441 kts | 120° |
| 2026-04-28 12:46 | 62.57400 | -9.69773 | 27282 ft | 441 kts | 120° |
| 2026-04-28 12:46 | 62.56071 | -9.63784 | 27283 ft | 441 kts | 120° |
| 2026-04-28 12:47 | 62.54740 | -9.57787 | 27277 ft | 441 kts | 120° |
| 2026-04-28 12:47 | 62.53400 | -9.51832 | 27285 ft | 441 kts | 120° |
| 2026-04-28 12:47 | 62.52049 | -9.45870 | 27289 ft | 441 kts | 120° |
| 2026-04-28 12:47 | 62.50711 | -9.39980 | 27276 ft | 442 kts | 120° |
| 2026-04-28 12:48 | 62.49378 | -9.34003 | 27289 ft | 441 kts | 120° |
| 2026-04-28 12:48 | 62.48053 | -9.28048 | 27292 ft | 439 kts | 120° |
| 2026-04-28 12:48 | 62.46711 | -9.22124 | 27295 ft | 439 kts | 120° |
| 2026-04-28 12:48 | 62.45351 | -9.16207 | 27304 ft | 439 kts | 120° |
| 2026-04-28 12:49 | 62.43998 | -9.10292 | 27313 ft | 440 kts | 120° |
| 2026-04-28 12:49 | 62.42652 | -9.04345 | 27315 ft | 442 kts | 120° |
| 2026-04-28 12:49 | 62.41274 | -8.98389 | 27317 ft | 445 kts | 120° |
| 2026-04-28 12:49 | 62.39885 | -8.92389 | 27324 ft | 449 kts | 120° |
| 2026-04-28 12:50 | 62.38504 | -8.86320 | 27318 ft | 453 kts | 120° |
| 2026-04-28 12:50 | 62.37109 | -8.80268 | 26893 ft | 462 kts | 120° |
| 2026-04-28 12:50 | 62.35680 | -8.74153 | 26340 ft | 453 kts | 120° |
| 2026-04-28 12:50 | 62.34289 | -8.68153 | 25795 ft | 444 kts | 120° |
| 2026-04-28 12:51 | 62.32927 | -8.62242 | 25251 ft | 437 kts | 120° |
| 2026-04-28 12:51 | 62.31579 | -8.56447 | 24722 ft | 430 kts | 120° |
| 2026-04-28 12:51 | 62.30238 | -8.50762 | 24201 ft | 423 kts | 121° |
| 2026-04-28 12:51 | 62.28914 | -8.45157 | 23652 ft | 418 kts | 121° |
| 2026-04-28 12:52 | 62.27608 | -8.39632 | 23049 ft | 413 kts | 121° |
| 2026-04-28 12:52 | 62.26318 | -8.34164 | 22451 ft | 408 kts | 121° |
| 2026-04-28 12:52 | 62.25054 | -8.28849 | 21881 ft | 403 kts | 121° |
| 2026-04-28 12:52 | 62.23791 | -8.23523 | 21315 ft | 399 kts | 121° |
| 2026-04-28 12:53 | 62.22541 | -8.18249 | 20765 ft | 395 kts | 121° |
| 2026-04-28 12:53 | 62.21307 | -8.13024 | 20212 ft | 391 kts | 121° |
| 2026-04-28 12:53 | 62.20085 | -8.07852 | 19687 ft | 387 kts | 121° |
| 2026-04-28 12:53 | 62.19269 | -8.04469 | 19341 ft | 385 kts | 122° |
| 2026-04-28 12:54 | 62.17628 | -7.97689 | 18652 ft | 381 kts | 122° |
| 2026-04-28 12:54 | 62.16414 | -7.92680 | 18065 ft | 378 kts | 122° |
| 2026-04-28 12:54 | 62.15208 | -7.87705 | 17488 ft | 375 kts | 122° |
| 2026-04-28 12:54 | 62.14009 | -7.82773 | 16926 ft | 373 kts | 122° |
| 2026-04-28 12:55 | 62.12831 | -7.77847 | 16366 ft | 371 kts | 121° |
| 2026-04-28 12:55 | 62.11679 | -7.73031 | 15825 ft | 367 kts | 124° |
| 2026-04-28 12:55 | 62.10355 | -7.68411 | 15287 ft | 363 kts | 128° |
| 2026-04-28 12:55 | 62.08963 | -7.63966 | 14766 ft | 358 kts | 129° |
| 2026-04-28 12:56 | 62.07499 | -7.59739 | 14251 ft | 350 kts | 135° |
| 2026-04-28 12:56 | 62.05903 | -7.55873 | 13689 ft | 344 kts | 137° |
| 2026-04-28 12:56 | 62.04283 | -7.52159 | 13115 ft | 340 kts | 138° |
| 2026-04-28 12:56 | 62.02678 | -7.48488 | 12559 ft | 337 kts | 138° |
| 2026-04-28 12:57 | 62.01085 | -7.44866 | 11983 ft | 334 kts | 137° |
| 2026-04-28 12:57 | 61.99512 | -7.41254 | 11439 ft | 332 kts | 136° |
| 2026-04-28 12:57 | 61.97983 | -7.37689 | 10917 ft | 329 kts | 136° |
| 2026-04-28 12:57 | 61.96460 | -7.34146 | 10388 ft | 318 kts | 136° |
| 2026-04-28 12:58 | 61.95002 | -7.30726 | 9819 ft | 307 kts | 136° |
| 2026-04-28 12:58 | 61.93599 | -7.27425 | 9235 ft | 295 kts | 136° |
| 2026-04-28 12:58 | 61.92251 | -7.24237 | 8676 ft | 287 kts | 136° |
| 2026-04-28 12:58 | 61.90912 | -7.21076 | 8199 ft | 289 kts | 136° |
| 2026-04-28 12:59 | 61.89575 | -7.17921 | 7768 ft | 287 kts | 136° |
| 2026-04-28 12:59 | 61.88245 | -7.14793 | 7369 ft | 284 kts | 136° |
| 2026-04-28 12:59 | 61.86922 | -7.11695 | 6987 ft | 282 kts | 136° |
| 2026-04-28 12:59 | 61.85620 | -7.08669 | 6601 ft | 280 kts | 137° |
| 2026-04-28 13:00 | 61.84560 | -7.05208 | 6189 ft | 287 kts | 111° |
| 2026-04-28 13:00 | 61.84376 | -7.00998 | 5804 ft | 290 kts | 90° |
| 2026-04-28 13:00 | 61.84488 | -6.96744 | 5416 ft | 289 kts | 89° |
| 2026-04-28 13:00 | 61.84643 | -6.92504 | 5016 ft | 289 kts | 83° |
| 2026-04-28 13:01 | 61.85384 | -6.88590 | 4619 ft | 290 kts | 51° |
| 2026-04-28 13:01 | 61.86941 | -6.86012 | 4261 ft | 282 kts | 18° |
| 2026-04-28 13:01 | 61.88801 | -6.85404 | 4102 ft | 264 kts | 352° |
| 2026-04-28 13:01 | 61.90581 | -6.85801 | 4031 ft | 252 kts | 347° |
| 2026-04-28 13:02 | 61.92281 | -6.86394 | 4003 ft | 243 kts | 343° |
| 2026-04-28 13:02 | 61.93897 | -6.87068 | 4009 ft | 237 kts | 343° |
| 2026-04-28 13:02 | 61.95474 | -6.87830 | 3964 ft | 227 kts | 333° |
| 2026-04-28 13:02 | 61.96608 | -6.89778 | 4008 ft | 200 kts | 294° |
| 2026-04-28 13:03 | 61.97256 | -6.92270 | 4062 ft | 186 kts | 297° |
| 2026-04-28 13:03 | 61.97971 | -6.94490 | 4064 ft | 178 kts | 298° |
| 2026-04-28 13:03 | 61.98622 | -6.96655 | 3886 ft | 173 kts | 294° |
| 2026-04-28 13:03 | 61.99196 | -6.98880 | 3587 ft | 170 kts | 292° |
| 2026-04-28 13:04 | 61.99744 | -7.01070 | 3357 ft | 164 kts | 291° |
| 2026-04-28 13:04 | 62.00256 | -7.03171 | 3075 ft | 157 kts | 290° |
| 2026-04-28 13:04 | 62.00741 | -7.05157 | 2824 ft | 149 kts | 291° |
| 2026-04-28 13:04 | 62.01213 | -7.07033 | 2594 ft | 138 kts | 290° |
| 2026-04-28 13:05 | 62.01646 | -7.08730 | 2376 ft | 124 kts | 288° |
| 2026-04-28 13:05 | 62.02037 | -7.10308 | 2179 ft | 119 kts | 286° |
| 2026-04-28 13:05 | 62.02416 | -7.11865 | 1992 ft | 118 kts | 286° |
| 2026-04-28 13:05 | 62.02795 | -7.13420 | 1798 ft | 119 kts | 285° |
| 2026-04-28 13:06 | 62.03181 | -7.14987 | 1610 ft | 120 kts | 285° |
| 2026-04-28 13:06 | 62.03573 | -7.16538 | 1368 ft | 118 kts | 285° |
| 2026-04-28 13:06 | 62.03952 | -7.18045 | 1064 ft | 116 kts | 287° |
| 2026-04-28 13:06 | 62.04309 | -7.19605 | 902 ft | 118 kts | 289° |
| 2026-04-28 13:07 | 62.04709 | -7.21160 | 862 ft | 121 kts | 292° |
| 2026-04-28 13:07 | 62.05146 | -7.22780 | 704 ft | 131 kts | 292° |
| 2026-04-28 13:07 | 62.05580 | -7.24537 | 464 ft | 136 kts | 290° |
| 2026-04-28 13:07 | 62.05857 | -7.25722 | 325 ft | 133 kts | 291° |
| 2026-04-28 13:08 | 62.06422 | -7.27964 | 434 ft | 134 kts | 290° |
| 2026-04-28 13:08 | 62.06849 | -7.29734 | 1030 ft | 133 kts | 288° |
| 2026-04-28 13:08 | 62.07293 | -7.31482 | 1648 ft | 140 kts | 286° |
| 2026-04-28 13:08 | 62.07670 | -7.33319 | 2036 ft | 135 kts | 281° |
| 2026-04-28 13:09 | 62.08000 | -7.35243 | 2300 ft | 139 kts | 279° |
| 2026-04-28 13:09 | 62.08305 | -7.37165 | 2629 ft | 138 kts | 279° |
| 2026-04-28 13:09 | 62.08603 | -7.39145 | 2931 ft | 141 kts | 279° |
| 2026-04-28 13:09 | 62.08908 | -7.41208 | 3251 ft | 151 kts | 279° |
| 2026-04-28 13:10 | 62.09163 | -7.43413 | 3551 ft | 152 kts | 262° |
| 2026-04-28 13:10 | 62.08622 | -7.45180 | 3831 ft | 152 kts | 208° |
| 2026-04-28 13:10 | 62.07584 | -7.45905 | 3964 ft | 161 kts | 200° |
| 2026-04-28 13:10 | 62.06484 | -7.46524 | 3965 ft | 171 kts | 198° |
| 2026-04-28 13:11 | 62.05258 | -7.47186 | 3948 ft | 192 kts | 198° |
| 2026-04-28 13:11 | 62.03960 | -7.47835 | 3952 ft | 191 kts | 197° |
| 2026-04-28 13:11 | 62.02672 | -7.48449 | 3963 ft | 189 kts | 197° |
| 2026-04-28 13:11 | 62.01389 | -7.49015 | 3967 ft | 189 kts | 192° |
| 2026-04-28 13:12 | 62.00083 | -7.48380 | 4000 ft | 208 kts | 149° |
| 2026-04-28 13:12 | 61.99051 | -7.46104 | 4022 ft | 216 kts | 139° |
| 2026-04-28 13:12 | 61.98046 | -7.43720 | 4022 ft | 216 kts | 139° |
| 2026-04-28 13:12 | 61.97061 | -7.41296 | 4011 ft | 217 kts | 137° |
| 2026-04-28 13:13 | 61.96090 | -7.38851 | 4003 ft | 216 kts | 137° |
| 2026-04-28 13:13 | 61.95126 | -7.36397 | 3999 ft | 216 kts | 137° |
| 2026-04-28 13:13 | 61.94177 | -7.33969 | 3997 ft | 216 kts | 136° |
| 2026-04-28 13:13 | 61.93219 | -7.31511 | 4001 ft | 216 kts | 136° |
| 2026-04-28 13:14 | 61.92268 | -7.29025 | 3992 ft | 217 kts | 135° |
| 2026-04-28 13:14 | 61.91368 | -7.26448 | 3986 ft | 217 kts | 133° |
| 2026-04-28 13:14 | 61.90496 | -7.23835 | 3990 ft | 217 kts | 132° |
| 2026-04-28 13:14 | 61.89626 | -7.21216 | 3991 ft | 217 kts | 132° |
| 2026-04-28 13:15 | 61.88745 | -7.18602 | 3998 ft | 218 kts | 132° |
| 2026-04-28 13:15 | 61.87859 | -7.15995 | 3994 ft | 219 kts | 131° |
| 2026-04-28 13:15 | 61.87267 | -7.14265 | 4001 ft | 219 kts | 132° |
| 2026-04-28 13:15 | 61.86082 | -7.10798 | 4010 ft | 219 kts | 131° |
| 2026-04-28 13:16 | 61.85189 | -7.08190 | 4012 ft | 219 kts | 131° |
| 2026-04-28 13:16 | 61.84291 | -7.05565 | 4019 ft | 220 kts | 131° |
| 2026-04-28 13:16 | 61.83390 | -7.02939 | 4021 ft | 221 kts | 131° |
| 2026-04-28 13:16 | 61.82488 | -7.00307 | 4025 ft | 221 kts | 131° |
| 2026-04-28 13:17 | 61.81588 | -6.97685 | 4024 ft | 220 kts | 131° |
| 2026-04-28 13:17 | 61.80993 | -6.95950 | 4021 ft | 220 kts | 131° |
| 2026-04-28 13:17 | 61.80096 | -6.93333 | 4022 ft | 220 kts | 132° |
| 2026-04-28 13:17 | 61.79199 | -6.90723 | 4019 ft | 220 kts | 131° |
| 2026-04-28 13:18 | 61.78302 | -6.88109 | 4015 ft | 219 kts | 132° |
| 2026-04-28 13:18 | 61.77114 | -6.84655 | 4019 ft | 219 kts | 131° |
| 2026-04-28 13:18 | 61.76218 | -6.82048 | 4001 ft | 219 kts | 131° |
| 2026-04-28 13:18 | 61.75675 | -6.80193 | 3992 ft | 223 kts | 115° |
| 2026-04-28 13:19 | 61.75422 | -6.76972 | 4020 ft | 229 kts | 92° |
| 2026-04-28 13:19 | 61.75708 | -6.73642 | 4036 ft | 233 kts | 76° |
| 2026-04-28 13:19 | 61.76136 | -6.70332 | 4034 ft | 234 kts | 73° |
| 2026-04-28 13:19 | 61.76995 | -6.67514 | 4061 ft | 225 kts | 34° |
| 2026-04-28 13:20 | 61.78310 | -6.65959 | 4074 ft | 209 kts | 22° |
| 2026-04-28 13:20 | 61.79575 | -6.64719 | 4067 ft | 193 kts | 19° |
| 2026-04-28 13:20 | 61.80749 | -6.63624 | 4044 ft | 174 kts | 18° |
| 2026-04-28 13:20 | 61.81813 | -6.62647 | 4004 ft | 160 kts | 18° |
| 2026-04-28 13:21 | 61.82799 | -6.61750 | 3995 ft | 151 kts | 17° |
| 2026-04-28 13:21 | 61.83740 | -6.60890 | 3998 ft | 147 kts | 17° |
| 2026-04-28 13:21 | 61.84670 | -6.60119 | 3968 ft | 139 kts | 358° |
| 2026-04-28 13:21 | 61.85576 | -6.60284 | 3953 ft | 130 kts | 346° |
| 2026-04-28 13:22 | 61.86507 | -6.60414 | 3992 ft | 139 kts | 346° |
| 2026-04-28 13:22 | 61.87495 | -6.60543 | 4018 ft | 144 kts | 346° |
| 2026-04-28 13:22 | 61.88457 | -6.60940 | 4017 ft | 137 kts | 323° |
| 2026-04-28 13:22 | 61.89186 | -6.62099 | 4026 ft | 130 kts | 309° |
| 2026-04-28 13:23 | 61.89763 | -6.63510 | 4028 ft | 126 kts | 297° |
| 2026-04-28 13:23 | 61.90283 | -6.64994 | 4023 ft | 125 kts | 296° |
| 2026-04-28 13:23 | 61.90785 | -6.66488 | 4017 ft | 123 kts | 295° |
| 2026-04-28 13:23 | 61.91258 | -6.67962 | 4008 ft | 122 kts | 294° |
| 2026-04-28 13:24 | 61.91715 | -6.69476 | 4002 ft | 122 kts | 292° |
| 2026-04-28 13:24 | 61.92157 | -6.71011 | 3999 ft | 122 kts | 291° |
| 2026-04-28 13:24 | 61.92587 | -6.72556 | 3995 ft | 121 kts | 291° |
| 2026-04-28 13:24 | 61.93007 | -6.74112 | 3992 ft | 121 kts | 290° |
| 2026-04-28 13:25 | 61.93412 | -6.75672 | 3990 ft | 120 kts | 289° |
| 2026-04-28 13:25 | 61.93802 | -6.77233 | 3990 ft | 119 kts | 288° |
| 2026-04-28 13:25 | 61.94184 | -6.78785 | 3983 ft | 118 kts | 288° |
| 2026-04-28 13:25 | 61.94559 | -6.80333 | 3987 ft | 118 kts | 288° |
| 2026-04-28 13:26 | 61.94935 | -6.81893 | 3991 ft | 120 kts | 288° |
| 2026-04-28 13:26 | 61.95313 | -6.83457 | 3996 ft | 121 kts | 288° |
| 2026-04-28 13:26 | 61.95701 | -6.85044 | 3994 ft | 121 kts | 289° |
| 2026-04-28 13:26 | 61.96093 | -6.86621 | 3991 ft | 120 kts | 289° |
| 2026-04-28 13:27 | 61.96484 | -6.88177 | 3986 ft | 119 kts | 289° |
| 2026-04-28 13:27 | 61.96871 | -6.89715 | 3982 ft | 117 kts | 289° |
| 2026-04-28 13:27 | 61.97251 | -6.91225 | 3980 ft | 115 kts | 289° |
| 2026-04-28 13:27 | 61.97627 | -6.92707 | 3982 ft | 113 kts | 289° |
| 2026-04-28 13:28 | 61.97996 | -6.94166 | 3982 ft | 111 kts | 288° |
| 2026-04-28 13:28 | 61.98363 | -6.95630 | 3991 ft | 115 kts | 288° |
| 2026-04-28 13:28 | 61.98737 | -6.97143 | 3984 ft | 121 kts | 288° |
| 2026-04-28 13:28 | 61.99144 | -6.98764 | 3733 ft | 129 kts | 289° |
| 2026-04-28 13:29 | 61.99578 | -7.00452 | 3465 ft | 128 kts | 289° |
| 2026-04-28 13:29 | 61.99991 | -7.02102 | 3229 ft | 125 kts | 288° |
| 2026-04-28 13:29 | 62.00384 | -7.03696 | 3002 ft | 118 kts | 288° |
| 2026-04-28 13:29 | 62.00758 | -7.05203 | 2820 ft | 114 kts | 288° |
| 2026-04-28 13:30 | 62.01128 | -7.06687 | 2631 ft | 113 kts | 287° |
| 2026-04-28 13:30 | 62.01494 | -7.08154 | 2456 ft | 112 kts | 287° |
| 2026-04-28 13:30 | 62.01860 | -7.09624 | 2280 ft | 113 kts | 286° |
| 2026-04-28 13:30 | 62.02223 | -7.11102 | 2108 ft | 116 kts | 288° |
| 2026-04-28 13:31 | 62.02989 | -7.14224 | 1731 ft | 123 kts | 288° |
| 2026-04-28 13:31 | 62.03400 | -7.15841 | 1507 ft | 126 kts | 290° |
| 2026-04-28 13:31 | 62.03805 | -7.17480 | 1244 ft | 122 kts | 289° |
| 2026-04-28 13:32 | 62.04214 | -7.19058 | 1107 ft | 123 kts | 288° |
| 2026-04-28 13:32 | 62.04619 | -7.20692 | 910 ft | 125 kts | 292° |
| 2026-04-28 13:32 | 62.05052 | -7.22305 | 763 ft | 126 kts | 291° |
| 2026-04-28 13:32 | 62.05455 | -7.24019 | 551 ft | 131 kts | 288° |
| 2026-04-28 13:33 | 62.05864 | -7.25728 | 305 ft | 128 kts | 292° |
| 2026-04-28 13:33 | 62.06248 | -7.27263 | 282 ft | 101 kts | 293° |
| 2026-04-28 13:33 | 62.06501 | -7.28307 | 280 ft | 57 kts | 298° |
| 2026-04-28 13:33 | 62.06683 | -7.29015 | 270 ft | 46 kts | 297° |
| 2026-04-28 13:34 | 62.06723 | -7.29199 | 268 ft | 7 kts | 144° |
| 2026-04-28 13:34 | 62.06673 | -7.28988 | 270 ft | 27 kts | 117° |
| 2026-04-28 13:34 | 62.06569 | -7.28565 | 277 ft | 25 kts | 118° |
| 2026-04-28 13:34 | 62.06486 | -7.28224 | 280 ft | 24 kts | 110° |
| 2026-04-28 13:35 | 62.06565 | -7.28097 | 277 ft | 18 kts | 16° |
| 2026-04-28 13:35 | 62.06593 | -7.28089 | 278 ft | 3 kts | 356° |
| 2026-04-28 13:35 | 62.06620 | -7.28094 | 278 ft | 7 kts | 355° |
| 2026-04-28 13:35 | 62.06674 | -7.28114 | 278 ft | 8 kts | 338° |
| 2026-04-28 13:36 | 62.06720 | -7.28152 | 278 ft | 0 kts | 8° |
| 2026-04-28 13:36 | 62.06727 | -7.28148 | 278 ft | 1 kts | 26° |
| 2026-04-28 13:36 | 62.06731 | -7.28131 | 278 ft | 2 kts | 73° |
| 2026-04-28 13:36 | 62.06732 | -7.28119 | 278 ft | 0 kts | 73° |